CCA4036 ZJSY-ZUUU
Flight info
| Callsign | CCA4036 |
|---|---|
| Flight time | 2h 9m |
| Altitude | 35100 |
| Route | PORAP W222 NUMKU W223 AGTEL W71 LH R339 P477 H19 KWE W3 SUMUN W179 IGNAK |
| Aircraft | A359/H-SDE2E3GHIJ3J4J5LM1ORWXY/LB1D1 |
Departure
| Time | 2026-05-08 02:01 |
|---|---|
| Airport | Sanya Phoenix International Airport (ZJSY) |
Arrival
| Time | 2026-05-08 04:10 |
|---|---|
| Airport | Chengdu Shuangliu International Airport (ZUUU) |
| Time | Latitude | Longitude | Altitude | Speed | Heading |
|---|---|---|---|---|---|
| 2026-05-08 01:38 | 18.30575 | 109.41057 | 90 ft | 0 kts | 81° |
| 2026-05-08 01:56 | 18.30577 | 109.41074 | 90 ft | 6 kts | 81° |
| 2026-05-08 01:56 | 18.30566 | 109.41121 | 90 ft | 5 kts | 133° |
| 2026-05-08 01:56 | 18.30523 | 109.41137 | 91 ft | 9 kts | 168° |
| 2026-05-08 01:56 | 18.30467 | 109.41131 | 90 ft | 8 kts | 220° |
| 2026-05-08 01:57 | 18.30443 | 109.41055 | 92 ft | 14 kts | 261° |
| 2026-05-08 01:57 | 18.30426 | 109.40935 | 89 ft | 19 kts | 262° |
| 2026-05-08 01:57 | 18.30407 | 109.40784 | 91 ft | 22 kts | 262° |
| 2026-05-08 01:57 | 18.30385 | 109.40612 | 89 ft | 25 kts | 262° |
| 2026-05-08 01:58 | 18.30361 | 109.40424 | 89 ft | 27 kts | 262° |
| 2026-05-08 01:58 | 18.30336 | 109.40237 | 84 ft | 25 kts | 262° |
| 2026-05-08 01:58 | 18.30311 | 109.40044 | 85 ft | 27 kts | 263° |
| 2026-05-08 01:58 | 18.30286 | 109.39852 | 85 ft | 23 kts | 262° |
| 2026-05-08 01:59 | 18.30265 | 109.39701 | 84 ft | 14 kts | 258° |
| 2026-05-08 01:59 | 18.30207 | 109.39639 | 82 ft | 8 kts | 197° |
| 2026-05-08 01:59 | 18.30148 | 109.39638 | 83 ft | 9 kts | 174° |
| 2026-05-08 01:59 | 18.30094 | 109.39666 | 80 ft | 8 kts | 112° |
| 2026-05-08 02:00 | 18.30096 | 109.39728 | 85 ft | 15 kts | 83° |
| 2026-05-08 02:00 | 18.30134 | 109.40023 | 86 ft | 75 kts | 82° |
| 2026-05-08 02:00 | 18.30237 | 109.40813 | 85 ft | 140 kts | 82° |
| 2026-05-08 02:00 | 18.30385 | 109.41966 | 455 ft | 165 kts | 81° |
| 2026-05-08 02:01 | 18.30543 | 109.43157 | 1302 ft | 162 kts | 82° |
| 2026-05-08 02:01 | 18.30704 | 109.44355 | 1821 ft | 179 kts | 82° |
| 2026-05-08 02:01 | 18.30870 | 109.45605 | 2191 ft | 201 kts | 83° |
| 2026-05-08 02:01 | 18.31074 | 109.47154 | 2669 ft | 222 kts | 83° |
| 2026-05-08 02:02 | 18.31013 | 109.48795 | 3309 ft | 231 kts | 108° |
| 2026-05-08 02:02 | 18.30628 | 109.50449 | 4031 ft | 238 kts | 91° |
| 2026-05-08 02:02 | 18.30965 | 109.51842 | 4671 ft | 242 kts | 60° |
| 2026-05-08 02:02 | 18.32221 | 109.53017 | 5434 ft | 249 kts | 24° |
| 2026-05-08 02:03 | 18.33937 | 109.53262 | 6252 ft | 254 kts | 359° |
| 2026-05-08 02:03 | 18.35705 | 109.53349 | 7042 ft | 256 kts | 9° |
| 2026-05-08 02:03 | 18.37425 | 109.53811 | 7821 ft | 259 kts | 20° |
| 2026-05-08 02:03 | 18.39084 | 109.54566 | 8603 ft | 262 kts | 27° |
| 2026-05-08 02:04 | 18.40694 | 109.55496 | 9365 ft | 266 kts | 31° |
| 2026-05-08 02:04 | 18.42273 | 109.56527 | 10127 ft | 269 kts | 33° |
| 2026-05-08 02:04 | 18.43846 | 109.57623 | 10898 ft | 273 kts | 34° |
| 2026-05-08 02:04 | 18.45422 | 109.58758 | 11673 ft | 276 kts | 35° |
| 2026-05-08 02:05 | 18.47010 | 109.59923 | 12469 ft | 279 kts | 35° |
| 2026-05-08 02:05 | 18.48618 | 109.61091 | 13236 ft | 283 kts | 32° |
| 2026-05-08 02:05 | 18.50384 | 109.62082 | 13795 ft | 296 kts | 25° |
| 2026-05-08 02:05 | 18.52320 | 109.63013 | 14125 ft | 316 kts | 24° |
| 2026-05-08 02:06 | 18.54384 | 109.63986 | 14436 ft | 335 kts | 24° |
| 2026-05-08 02:06 | 18.56563 | 109.65017 | 14749 ft | 352 kts | 24° |
| 2026-05-08 02:06 | 18.58844 | 109.66101 | 15054 ft | 368 kts | 24° |
| 2026-05-08 02:06 | 18.61219 | 109.67237 | 15329 ft | 382 kts | 24° |
| 2026-05-08 02:07 | 18.63675 | 109.68414 | 15697 ft | 392 kts | 24° |
| 2026-05-08 02:07 | 18.66176 | 109.69612 | 16177 ft | 397 kts | 24° |
| 2026-05-08 02:07 | 18.68701 | 109.70822 | 16718 ft | 401 kts | 24° |
| 2026-05-08 02:07 | 18.71247 | 109.72043 | 17216 ft | 405 kts | 24° |
| 2026-05-08 02:08 | 18.73828 | 109.73281 | 17753 ft | 409 kts | 24° |
| 2026-05-08 02:08 | 18.76428 | 109.74529 | 18253 ft | 412 kts | 24° |
| 2026-05-08 02:08 | 18.79049 | 109.75792 | 18778 ft | 415 kts | 24° |
| 2026-05-08 02:08 | 18.81688 | 109.77058 | 19286 ft | 418 kts | 24° |
| 2026-05-08 02:09 | 18.84349 | 109.78333 | 19791 ft | 421 kts | 24° |
| 2026-05-08 02:09 | 18.87024 | 109.79617 | 20285 ft | 424 kts | 24° |
| 2026-05-08 02:09 | 18.89718 | 109.80911 | 20768 ft | 427 kts | 24° |
| 2026-05-08 02:09 | 18.92432 | 109.82216 | 21255 ft | 430 kts | 24° |
| 2026-05-08 02:10 | 18.95125 | 109.83511 | 21731 ft | 432 kts | 24° |
| 2026-05-08 02:10 | 18.97873 | 109.84833 | 22185 ft | 435 kts | 24° |
| 2026-05-08 02:10 | 19.00641 | 109.86165 | 22652 ft | 439 kts | 24° |
| 2026-05-08 02:10 | 19.03422 | 109.87505 | 23104 ft | 441 kts | 24° |
| 2026-05-08 02:11 | 19.06263 | 109.88873 | 23533 ft | 444 kts | 24° |
| 2026-05-08 02:11 | 19.08123 | 109.89769 | 23820 ft | 446 kts | 24° |
| 2026-05-08 02:11 | 19.11878 | 109.91578 | 24369 ft | 449 kts | 24° |
| 2026-05-08 02:11 | 19.14730 | 109.92954 | 24794 ft | 452 kts | 24° |
| 2026-05-08 02:12 | 19.17601 | 109.94339 | 25224 ft | 455 kts | 24° |
| 2026-05-08 02:12 | 19.20487 | 109.95732 | 25686 ft | 457 kts | 24° |
| 2026-05-08 02:12 | 19.23375 | 109.97126 | 26163 ft | 460 kts | 24° |
| 2026-05-08 02:12 | 19.25316 | 109.98064 | 26487 ft | 462 kts | 24° |
| 2026-05-08 02:13 | 19.28249 | 109.99468 | 26979 ft | 465 kts | 23° |
| 2026-05-08 02:13 | 19.31220 | 110.00847 | 27455 ft | 467 kts | 22° |
| 2026-05-08 02:13 | 19.34206 | 110.02229 | 27953 ft | 470 kts | 23° |
| 2026-05-08 02:13 | 19.37196 | 110.03645 | 28401 ft | 472 kts | 23° |
| 2026-05-08 02:14 | 19.40201 | 110.05088 | 28828 ft | 476 kts | 24° |
| 2026-05-08 02:14 | 19.43220 | 110.06547 | 29264 ft | 479 kts | 24° |
| 2026-05-08 02:14 | 19.46256 | 110.08018 | 29707 ft | 481 kts | 24° |
| 2026-05-08 02:14 | 19.49302 | 110.09494 | 30090 ft | 484 kts | 23° |
| 2026-05-08 02:15 | 19.52373 | 110.10979 | 30488 ft | 487 kts | 24° |
| 2026-05-08 02:15 | 19.55459 | 110.12471 | 30851 ft | 489 kts | 24° |
| 2026-05-08 02:15 | 19.58569 | 110.13976 | 31203 ft | 492 kts | 24° |
| 2026-05-08 02:15 | 19.61690 | 110.15487 | 31542 ft | 494 kts | 24° |
| 2026-05-08 02:16 | 19.64825 | 110.17004 | 31871 ft | 496 kts | 24° |
| 2026-05-08 02:16 | 19.67971 | 110.18527 | 32166 ft | 499 kts | 24° |
| 2026-05-08 02:16 | 19.71136 | 110.20060 | 32466 ft | 501 kts | 24° |
| 2026-05-08 02:16 | 19.74316 | 110.21600 | 32769 ft | 503 kts | 24° |
| 2026-05-08 02:17 | 19.77498 | 110.23143 | 33190 ft | 502 kts | 24° |
| 2026-05-08 02:17 | 19.80671 | 110.24685 | 33627 ft | 500 kts | 24° |
| 2026-05-08 02:17 | 19.83830 | 110.26220 | 34008 ft | 499 kts | 24° |
| 2026-05-08 02:17 | 19.86984 | 110.27751 | 34356 ft | 499 kts | 24° |
| 2026-05-08 02:18 | 19.90138 | 110.29283 | 34716 ft | 498 kts | 24° |
| 2026-05-08 02:18 | 19.93293 | 110.30816 | 35015 ft | 498 kts | 24° |
| 2026-05-08 02:18 | 19.99586 | 110.33870 | 35063 ft | 497 kts | 23° |
| 2026-05-08 02:19 | 20.06026 | 110.36474 | 35063 ft | 495 kts | 12° |
| 2026-05-08 02:19 | 20.12801 | 110.37037 | 35064 ft | 493 kts | 354° |
| 2026-05-08 02:20 | 20.19567 | 110.35879 | 35060 ft | 493 kts | 348° |
| 2026-05-08 02:20 | 20.26280 | 110.34426 | 35070 ft | 492 kts | 348° |
| 2026-05-08 02:21 | 20.32985 | 110.32957 | 35071 ft | 492 kts | 348° |
| 2026-05-08 02:21 | 20.39698 | 110.31517 | 35068 ft | 492 kts | 348° |
| 2026-05-08 02:22 | 20.46414 | 110.30095 | 35070 ft | 492 kts | 348° |
| 2026-05-08 02:22 | 20.53244 | 110.29592 | 35073 ft | 494 kts | 0° |
| 2026-05-08 02:23 | 20.60108 | 110.29932 | 35066 ft | 495 kts | 2° |
| 2026-05-08 02:23 | 20.66973 | 110.30407 | 35067 ft | 494 kts | 2° |
| 2026-05-08 02:24 | 20.73847 | 110.30886 | 35071 ft | 495 kts | 2° |
| 2026-05-08 02:24 | 20.80714 | 110.31346 | 35071 ft | 494 kts | 2° |
| 2026-05-08 02:25 | 20.87589 | 110.31800 | 35068 ft | 495 kts | 2° |
| 2026-05-08 02:25 | 20.94451 | 110.32269 | 35075 ft | 494 kts | 2° |
| 2026-05-08 02:26 | 21.01317 | 110.32690 | 35072 ft | 493 kts | 359° |
| 2026-05-08 02:26 | 21.08073 | 110.31796 | 35082 ft | 490 kts | 342° |
| 2026-05-08 02:27 | 21.14165 | 110.28699 | 35080 ft | 486 kts | 323° |
| 2026-05-08 02:27 | 21.18944 | 110.23647 | 35097 ft | 484 kts | 305° |
| 2026-05-08 02:28 | 21.21978 | 110.17237 | 35082 ft | 484 kts | 293° |
| 2026-05-08 02:28 | 21.24957 | 110.10773 | 35085 ft | 484 kts | 297° |
| 2026-05-08 02:29 | 21.28070 | 110.04380 | 35099 ft | 483 kts | 297° |
| 2026-05-08 02:29 | 21.31233 | 109.98023 | 35097 ft | 483 kts | 298° |
| 2026-05-08 02:30 | 21.34418 | 109.91671 | 35100 ft | 484 kts | 298° |
| 2026-05-08 02:30 | 21.37601 | 109.85317 | 35100 ft | 483 kts | 298° |
| 2026-05-08 02:31 | 21.40749 | 109.79014 | 35100 ft | 482 kts | 297° |
| 2026-05-08 02:31 | 21.43917 | 109.72659 | 35106 ft | 483 kts | 297° |
| 2026-05-08 02:32 | 21.47083 | 109.66308 | 35115 ft | 483 kts | 297° |
| 2026-05-08 02:32 | 21.50251 | 109.59946 | 35119 ft | 483 kts | 298° |
| 2026-05-08 02:33 | 21.53412 | 109.53585 | 35118 ft | 483 kts | 297° |
| 2026-05-08 02:33 | 21.56572 | 109.47212 | 35119 ft | 483 kts | 297° |
| 2026-05-08 02:34 | 21.60240 | 109.41181 | 35125 ft | 484 kts | 307° |
| 2026-05-08 02:34 | 21.64500 | 109.35591 | 35128 ft | 483 kts | 309° |
| 2026-05-08 02:35 | 21.68844 | 109.30074 | 35124 ft | 483 kts | 309° |
| 2026-05-08 02:35 | 21.73185 | 109.24563 | 35125 ft | 483 kts | 309° |
| 2026-05-08 02:36 | 21.77518 | 109.19032 | 35129 ft | 484 kts | 309° |
| 2026-05-08 02:36 | 21.81848 | 109.13487 | 35135 ft | 484 kts | 309° |
| 2026-05-08 02:37 | 21.86181 | 109.07936 | 35137 ft | 484 kts | 309° |
| 2026-05-08 02:37 | 21.90517 | 109.02401 | 35135 ft | 484 kts | 309° |
| 2026-05-08 02:38 | 21.94862 | 108.96848 | 35133 ft | 484 kts | 309° |
| 2026-05-08 02:38 | 21.99200 | 108.91298 | 35137 ft | 484 kts | 309° |
| 2026-05-08 02:39 | 22.03531 | 108.85749 | 35133 ft | 483 kts | 308° |
| 2026-05-08 02:39 | 22.07843 | 108.80218 | 35139 ft | 481 kts | 308° |
| 2026-05-08 02:40 | 22.12144 | 108.74699 | 35139 ft | 481 kts | 308° |
| 2026-05-08 02:40 | 22.16431 | 108.69219 | 35146 ft | 482 kts | 308° |
| 2026-05-08 02:41 | 22.20754 | 108.63689 | 35147 ft | 482 kts | 308° |
| 2026-05-08 02:41 | 22.25070 | 108.58160 | 35147 ft | 482 kts | 308° |
| 2026-05-08 02:42 | 22.29381 | 108.52634 | 35146 ft | 482 kts | 308° |
| 2026-05-08 02:42 | 22.33698 | 108.47093 | 35147 ft | 482 kts | 308° |
| 2026-05-08 02:43 | 22.38011 | 108.41556 | 35148 ft | 482 kts | 308° |
| 2026-05-08 02:43 | 22.42319 | 108.36018 | 35143 ft | 482 kts | 308° |
| 2026-05-08 02:44 | 22.46628 | 108.30468 | 35139 ft | 482 kts | 308° |
| 2026-05-08 02:44 | 22.50935 | 108.24918 | 35147 ft | 482 kts | 308° |
| 2026-05-08 02:45 | 22.55243 | 108.19364 | 35146 ft | 482 kts | 308° |
| 2026-05-08 02:45 | 22.59552 | 108.13813 | 35146 ft | 481 kts | 309° |
| 2026-05-08 02:46 | 22.64078 | 108.08529 | 35146 ft | 482 kts | 312° |
| 2026-05-08 02:46 | 22.68762 | 108.03323 | 35147 ft | 482 kts | 312° |
| 2026-05-08 02:47 | 22.73408 | 107.98095 | 35139 ft | 482 kts | 311° |
| 2026-05-08 02:47 | 22.78029 | 107.92820 | 35146 ft | 483 kts | 311° |
| 2026-05-08 02:48 | 22.82645 | 107.87523 | 35140 ft | 484 kts | 311° |
| 2026-05-08 02:48 | 22.87266 | 107.82218 | 35154 ft | 483 kts | 311° |
| 2026-05-08 02:49 | 22.91877 | 107.76920 | 35154 ft | 483 kts | 310° |
| 2026-05-08 02:49 | 22.96486 | 107.71616 | 35154 ft | 483 kts | 310° |
| 2026-05-08 02:50 | 23.01091 | 107.66313 | 35153 ft | 483 kts | 310° |
| 2026-05-08 02:50 | 23.05698 | 107.61021 | 35158 ft | 482 kts | 310° |
| 2026-05-08 02:51 | 23.10327 | 107.55753 | 35154 ft | 482 kts | 310° |
| 2026-05-08 02:51 | 23.14946 | 107.50466 | 35154 ft | 482 kts | 310° |
| 2026-05-08 02:52 | 23.19549 | 107.45173 | 35156 ft | 482 kts | 310° |
| 2026-05-08 02:52 | 23.24140 | 107.39886 | 35164 ft | 481 kts | 310° |
| 2026-05-08 02:53 | 23.28732 | 107.34594 | 35164 ft | 481 kts | 310° |
| 2026-05-08 02:53 | 23.33527 | 107.29495 | 35164 ft | 486 kts | 318° |
| 2026-05-08 02:54 | 23.39445 | 107.25864 | 35171 ft | 496 kts | 336° |
| 2026-05-08 02:54 | 23.46293 | 107.24524 | 35177 ft | 508 kts | 355° |
| 2026-05-08 02:55 | 23.56937 | 107.24776 | 35172 ft | 511 kts | 358° |
| 2026-05-08 02:56 | 23.64047 | 107.25078 | 35175 ft | 511 kts | 358° |
| 2026-05-08 02:56 | 23.71152 | 107.25343 | 35181 ft | 511 kts | 357° |
| 2026-05-08 02:57 | 23.78262 | 107.25578 | 35182 ft | 511 kts | 357° |
| 2026-05-08 02:57 | 23.85380 | 107.25806 | 35181 ft | 512 kts | 357° |
| 2026-05-08 02:58 | 23.92499 | 107.26472 | 35191 ft | 515 kts | 1° |
| 2026-05-08 02:58 | 23.99620 | 107.27375 | 35191 ft | 515 kts | 2° |
| 2026-05-08 02:59 | 24.06741 | 107.28315 | 35197 ft | 515 kts | 1° |
| 2026-05-08 02:59 | 24.13809 | 107.29248 | 35200 ft | 515 kts | 2° |
| 2026-05-08 03:00 | 24.20920 | 107.30178 | 35212 ft | 514 kts | 1° |
| 2026-05-08 03:00 | 24.28027 | 107.31106 | 35208 ft | 515 kts | 1° |
| 2026-05-08 03:01 | 24.35136 | 107.32045 | 35225 ft | 514 kts | 1° |
| 2026-05-08 03:01 | 24.41087 | 107.32819 | 35219 ft | 514 kts | 1° |
| 2026-05-08 03:02 | 24.48131 | 107.33737 | 35207 ft | 513 kts | 2° |
| 2026-05-08 03:02 | 24.55276 | 107.34678 | 35233 ft | 515 kts | 1° |
| 2026-05-08 03:03 | 24.62426 | 107.35613 | 35235 ft | 518 kts | 1° |
| 2026-05-08 03:03 | 24.69547 | 107.36550 | 35240 ft | 518 kts | 1° |
| 2026-05-08 03:04 | 24.76702 | 107.37492 | 35248 ft | 518 kts | 1° |
| 2026-05-08 03:04 | 24.83791 | 107.38426 | 35249 ft | 518 kts | 1° |
| 2026-05-08 03:05 | 24.90975 | 107.39373 | 35260 ft | 517 kts | 1° |
| 2026-05-08 03:05 | 24.98140 | 107.40319 | 35264 ft | 518 kts | 1° |
| 2026-05-08 03:06 | 25.05277 | 107.41263 | 35261 ft | 517 kts | 1° |
| 2026-05-08 03:06 | 25.12410 | 107.42209 | 35266 ft | 516 kts | 1° |
| 2026-05-08 03:07 | 25.19561 | 107.43004 | 35273 ft | 511 kts | 355° |
| 2026-05-08 03:07 | 25.26452 | 107.41966 | 35290 ft | 494 kts | 337° |
| 2026-05-08 03:08 | 25.32974 | 107.39626 | 35289 ft | 492 kts | 335° |
| 2026-05-08 03:08 | 25.39417 | 107.37096 | 35299 ft | 491 kts | 334° |
| 2026-05-08 03:09 | 25.45857 | 107.34556 | 35311 ft | 491 kts | 334° |
| 2026-05-08 03:09 | 25.52304 | 107.32038 | 35322 ft | 491 kts | 334° |
| 2026-05-08 03:10 | 25.58746 | 107.29543 | 35321 ft | 491 kts | 334° |
| 2026-05-08 03:10 | 25.65195 | 107.27035 | 35328 ft | 491 kts | 334° |
| 2026-05-08 03:11 | 25.71422 | 107.24111 | 35348 ft | 481 kts | 324° |
| 2026-05-08 03:11 | 25.76571 | 107.19591 | 35348 ft | 468 kts | 310° |
| 2026-05-08 03:12 | 25.81093 | 107.14437 | 35438 ft | 467 kts | 308° |
| 2026-05-08 03:12 | 25.83328 | 107.11791 | 35724 ft | 468 kts | 308° |
| 2026-05-08 03:12 | 25.85551 | 107.09150 | 36107 ft | 466 kts | 308° |
| 2026-05-08 03:12 | 25.87765 | 107.06524 | 36328 ft | 467 kts | 308° |
| 2026-05-08 03:13 | 25.89985 | 107.03903 | 36357 ft | 466 kts | 308° |
| 2026-05-08 03:13 | 25.94400 | 106.98709 | 36357 ft | 465 kts | 308° |
| 2026-05-08 03:14 | 25.98841 | 106.93493 | 36362 ft | 466 kts | 308° |
| 2026-05-08 03:14 | 26.03302 | 106.88253 | 36364 ft | 464 kts | 308° |
| 2026-05-08 03:15 | 26.07842 | 106.83189 | 36366 ft | 465 kts | 315° |
| 2026-05-08 03:15 | 26.13419 | 106.79368 | 36369 ft | 480 kts | 331° |
| 2026-05-08 03:16 | 26.20020 | 106.77671 | 36366 ft | 499 kts | 350° |
| 2026-05-08 03:16 | 26.27031 | 106.77815 | 36365 ft | 506 kts | 356° |
| 2026-05-08 03:17 | 26.34070 | 106.78284 | 36365 ft | 507 kts | 356° |
| 2026-05-08 03:17 | 26.41121 | 106.78757 | 36365 ft | 507 kts | 356° |
| 2026-05-08 03:18 | 26.48130 | 106.79212 | 36365 ft | 507 kts | 356° |
| 2026-05-08 03:18 | 26.55133 | 106.79324 | 36365 ft | 502 kts | 351° |
| 2026-05-08 03:19 | 26.62118 | 106.78988 | 36366 ft | 501 kts | 350° |
| 2026-05-08 03:19 | 26.69063 | 106.78585 | 36366 ft | 500 kts | 350° |
| 2026-05-08 03:20 | 26.75871 | 106.77586 | 36367 ft | 487 kts | 337° |
| 2026-05-08 03:20 | 26.81901 | 106.74566 | 36368 ft | 468 kts | 320° |
| 2026-05-08 03:21 | 26.86962 | 106.70053 | 36366 ft | 462 kts | 313° |
| 2026-05-08 03:21 | 26.91784 | 106.65300 | 36365 ft | 462 kts | 312° |
| 2026-05-08 03:22 | 26.96584 | 106.60524 | 36367 ft | 461 kts | 312° |
| 2026-05-08 03:22 | 27.01403 | 106.55766 | 36365 ft | 461 kts | 313° |
| 2026-05-08 03:23 | 27.06225 | 106.51028 | 36368 ft | 461 kts | 313° |
| 2026-05-08 03:23 | 27.11047 | 106.46285 | 36366 ft | 461 kts | 312° |
| 2026-05-08 03:24 | 27.15856 | 106.41547 | 36367 ft | 460 kts | 312° |
| 2026-05-08 03:24 | 27.20671 | 106.36799 | 36365 ft | 460 kts | 312° |
| 2026-05-08 03:25 | 27.25511 | 106.32083 | 36366 ft | 460 kts | 313° |
| 2026-05-08 03:25 | 27.30345 | 106.27390 | 36365 ft | 458 kts | 313° |
| 2026-05-08 03:26 | 27.35130 | 106.22736 | 36365 ft | 458 kts | 313° |
| 2026-05-08 03:26 | 27.39940 | 106.18041 | 36363 ft | 457 kts | 312° |
| 2026-05-08 03:27 | 27.44739 | 106.13352 | 36366 ft | 457 kts | 312° |
| 2026-05-08 03:27 | 27.49519 | 106.08677 | 36367 ft | 457 kts | 312° |
| 2026-05-08 03:28 | 27.54326 | 106.03963 | 36366 ft | 456 kts | 312° |
| 2026-05-08 03:28 | 27.59105 | 105.99276 | 36367 ft | 455 kts | 312° |
| 2026-05-08 03:29 | 27.63882 | 105.94586 | 36362 ft | 455 kts | 312° |
| 2026-05-08 03:29 | 27.68658 | 105.89887 | 36365 ft | 454 kts | 310° |
| 2026-05-08 03:30 | 27.74097 | 105.81508 | 36358 ft | 435 kts | 289° |
| 2026-05-08 03:31 | 27.77900 | 105.68657 | 36351 ft | 431 kts | 283° |
| 2026-05-08 03:32 | 27.80819 | 105.59015 | 36360 ft | 436 kts | 288° |
| 2026-05-08 03:32 | 27.83207 | 105.52724 | 36358 ft | 436 kts | 289° |
| 2026-05-08 03:33 | 27.85646 | 105.46448 | 36358 ft | 436 kts | 289° |
| 2026-05-08 03:33 | 27.88087 | 105.40170 | 36359 ft | 436 kts | 289° |
| 2026-05-08 03:34 | 27.90640 | 105.33935 | 36358 ft | 438 kts | 292° |
| 2026-05-08 03:34 | 27.93442 | 105.27803 | 36355 ft | 439 kts | 292° |
| 2026-05-08 03:35 | 27.96321 | 105.21715 | 36356 ft | 441 kts | 297° |
| 2026-05-08 03:35 | 28.00235 | 105.16286 | 36355 ft | 454 kts | 311° |
| 2026-05-08 03:36 | 28.05157 | 105.12239 | 36357 ft | 464 kts | 319° |
| 2026-05-08 03:36 | 28.10659 | 105.08387 | 36355 ft | 464 kts | 320° |
| 2026-05-08 03:37 | 28.16177 | 105.04594 | 36358 ft | 464 kts | 320° |
| 2026-05-08 03:37 | 28.21674 | 105.00777 | 36358 ft | 463 kts | 320° |
| 2026-05-08 03:38 | 28.27165 | 104.96931 | 36355 ft | 463 kts | 320° |
| 2026-05-08 03:38 | 28.32644 | 104.93085 | 36354 ft | 463 kts | 320° |
| 2026-05-08 03:39 | 28.38121 | 104.89237 | 36356 ft | 463 kts | 320° |
| 2026-05-08 03:39 | 28.43614 | 104.85389 | 36358 ft | 464 kts | 320° |
| 2026-05-08 03:40 | 28.49117 | 104.81546 | 36358 ft | 464 kts | 320° |
| 2026-05-08 03:40 | 28.54616 | 104.77699 | 36359 ft | 464 kts | 320° |
| 2026-05-08 03:41 | 28.60102 | 104.73858 | 36359 ft | 463 kts | 320° |
| 2026-05-08 03:41 | 28.65588 | 104.70004 | 36347 ft | 463 kts | 320° |
| 2026-05-08 03:42 | 28.71071 | 104.66150 | 36351 ft | 463 kts | 320° |
| 2026-05-08 03:42 | 28.76555 | 104.62294 | 36344 ft | 463 kts | 320° |
| 2026-05-08 03:43 | 28.82028 | 104.58440 | 36347 ft | 463 kts | 320° |
| 2026-05-08 03:43 | 28.87513 | 104.54572 | 36345 ft | 463 kts | 319° |
| 2026-05-08 03:44 | 28.92978 | 104.50674 | 36348 ft | 463 kts | 319° |
| 2026-05-08 03:44 | 28.98444 | 104.46773 | 36349 ft | 463 kts | 319° |
| 2026-05-08 03:45 | 29.03903 | 104.42878 | 36347 ft | 463 kts | 319° |
| 2026-05-08 03:45 | 29.09363 | 104.38978 | 36351 ft | 463 kts | 319° |
| 2026-05-08 03:46 | 29.14828 | 104.35071 | 36344 ft | 463 kts | 319° |
| 2026-05-08 03:46 | 29.20280 | 104.31167 | 36203 ft | 462 kts | 319° |
| 2026-05-08 03:46 | 29.23004 | 104.29214 | 35955 ft | 462 kts | 319° |
| 2026-05-08 03:47 | 29.25688 | 104.27288 | 35711 ft | 462 kts | 319° |
| 2026-05-08 03:47 | 29.28403 | 104.25331 | 35459 ft | 461 kts | 318° |
| 2026-05-08 03:47 | 29.31080 | 104.23212 | 35204 ft | 459 kts | 315° |
| 2026-05-08 03:47 | 29.33644 | 104.21108 | 34960 ft | 460 kts | 315° |
| 2026-05-08 03:48 | 29.36255 | 104.18975 | 34701 ft | 461 kts | 315° |
| 2026-05-08 03:48 | 29.38872 | 104.16850 | 34440 ft | 462 kts | 316° |
| 2026-05-08 03:48 | 29.41499 | 104.14728 | 33955 ft | 460 kts | 316° |
| 2026-05-08 03:48 | 29.44058 | 104.12663 | 33112 ft | 461 kts | 316° |
| 2026-05-08 03:49 | 29.46734 | 104.10501 | 32195 ft | 462 kts | 316° |
| 2026-05-08 03:49 | 29.49363 | 104.08379 | 31286 ft | 463 kts | 317° |
| 2026-05-08 03:49 | 29.52000 | 104.06252 | 30349 ft | 464 kts | 317° |
| 2026-05-08 03:49 | 29.54647 | 104.04114 | 29431 ft | 466 kts | 318° |
| 2026-05-08 03:50 | 29.57287 | 104.01983 | 28694 ft | 462 kts | 318° |
| 2026-05-08 03:50 | 29.59903 | 103.99871 | 27983 ft | 457 kts | 318° |
| 2026-05-08 03:50 | 29.62493 | 103.97778 | 27286 ft | 454 kts | 319° |
| 2026-05-08 03:50 | 29.65064 | 103.95698 | 26607 ft | 450 kts | 319° |
| 2026-05-08 03:51 | 29.67611 | 103.93637 | 25897 ft | 446 kts | 319° |
| 2026-05-08 03:51 | 29.70141 | 103.91595 | 25213 ft | 443 kts | 320° |
| 2026-05-08 03:51 | 29.72821 | 103.89844 | 24513 ft | 447 kts | 332° |
| 2026-05-08 03:51 | 29.75828 | 103.88878 | 23791 ft | 455 kts | 348° |
| 2026-05-08 03:52 | 29.79004 | 103.88897 | 23071 ft | 461 kts | 4° |
| 2026-05-08 03:52 | 29.82107 | 103.89873 | 22344 ft | 465 kts | 17° |
| 2026-05-08 03:52 | 29.85112 | 103.91243 | 21589 ft | 464 kts | 18° |
| 2026-05-08 03:52 | 29.88087 | 103.92650 | 20847 ft | 461 kts | 19° |
| 2026-05-08 03:53 | 29.91048 | 103.94042 | 20089 ft | 457 kts | 19° |
| 2026-05-08 03:53 | 29.93941 | 103.95395 | 19362 ft | 453 kts | 19° |
| 2026-05-08 03:53 | 29.96890 | 103.96768 | 18592 ft | 450 kts | 19° |
| 2026-05-08 03:53 | 29.99742 | 103.98096 | 17848 ft | 446 kts | 19° |
| 2026-05-08 03:54 | 30.02612 | 103.99428 | 17103 ft | 443 kts | 19° |
| 2026-05-08 03:54 | 30.05455 | 104.00748 | 16365 ft | 438 kts | 19° |
| 2026-05-08 03:54 | 30.08269 | 104.02053 | 15637 ft | 433 kts | 19° |
| 2026-05-08 03:54 | 30.11085 | 104.03361 | 14916 ft | 428 kts | 19° |
| 2026-05-08 03:55 | 30.13769 | 104.04610 | 14451 ft | 417 kts | 19° |
| 2026-05-08 03:55 | 30.16361 | 104.05815 | 14206 ft | 399 kts | 19° |
| 2026-05-08 03:55 | 30.18882 | 104.06981 | 14074 ft | 381 kts | 19° |
| 2026-05-08 03:55 | 30.21286 | 104.08098 | 13966 ft | 363 kts | 19° |
| 2026-05-08 03:56 | 30.23665 | 104.08696 | 13859 ft | 340 kts | 357° |
| 2026-05-08 03:56 | 30.25873 | 104.08146 | 13753 ft | 317 kts | 331° |
| 2026-05-08 03:56 | 30.27499 | 104.06587 | 13649 ft | 297 kts | 304° |
| 2026-05-08 03:56 | 30.28342 | 104.04484 | 13538 ft | 283 kts | 282° |
| 2026-05-08 03:57 | 30.28726 | 104.02303 | 13417 ft | 269 kts | 284° |
| 2026-05-08 03:57 | 30.29294 | 104.00294 | 13301 ft | 257 kts | 289° |
| 2026-05-08 03:57 | 30.29700 | 103.98325 | 13184 ft | 248 kts | 272° |
| 2026-05-08 03:57 | 30.29359 | 103.96454 | 13024 ft | 234 kts | 243° |
| 2026-05-08 03:58 | 30.28285 | 103.95063 | 12718 ft | 236 kts | 215° |
| 2026-05-08 03:58 | 30.26817 | 103.94237 | 12424 ft | 234 kts | 204° |
| 2026-05-08 03:58 | 30.25310 | 103.93560 | 12082 ft | 229 kts | 204° |
| 2026-05-08 03:58 | 30.23789 | 103.92874 | 11582 ft | 238 kts | 204° |
| 2026-05-08 03:59 | 30.22225 | 103.92165 | 11007 ft | 246 kts | 204° |
| 2026-05-08 03:59 | 30.20608 | 103.91433 | 10435 ft | 253 kts | 203° |
| 2026-05-08 03:59 | 30.18960 | 103.90676 | 9831 ft | 256 kts | 203° |
| 2026-05-08 03:59 | 30.17346 | 103.89843 | 9220 ft | 254 kts | 213° |
| 2026-05-08 04:00 | 30.16147 | 103.88416 | 8668 ft | 247 kts | 245° |
| 2026-05-08 04:00 | 30.15737 | 103.86551 | 8145 ft | 236 kts | 277° |
| 2026-05-08 04:00 | 30.15948 | 103.85356 | 7897 ft | 224 kts | 296° |
| 2026-05-08 04:00 | 30.16852 | 103.83278 | 7401 ft | 212 kts | 304° |
| 2026-05-08 04:01 | 30.17578 | 103.81815 | 7018 ft | 208 kts | 304° |
| 2026-05-08 04:01 | 30.18325 | 103.80418 | 6642 ft | 199 kts | 312° |
| 2026-05-08 04:01 | 30.18957 | 103.79670 | 6523 ft | 195 kts | 323° |
| 2026-05-08 04:01 | 30.20005 | 103.78676 | 6328 ft | 194 kts | 326° |
| 2026-05-08 04:02 | 30.21424 | 103.77388 | 6057 ft | 193 kts | 327° |
| 2026-05-08 04:02 | 30.22166 | 103.76835 | 5911 ft | 190 kts | 340° |
| 2026-05-08 04:02 | 30.23424 | 103.76714 | 5824 ft | 182 kts | 17° |
| 2026-05-08 04:02 | 30.24536 | 103.77377 | 5743 ft | 180 kts | 37° |
| 2026-05-08 04:03 | 30.25464 | 103.78348 | 5665 ft | 180 kts | 44° |
| 2026-05-08 04:03 | 30.27241 | 103.80401 | 5523 ft | 181 kts | 45° |
| 2026-05-08 04:03 | 30.28125 | 103.81418 | 5458 ft | 179 kts | 44° |
| 2026-05-08 04:04 | 30.29007 | 103.82431 | 5381 ft | 179 kts | 45° |
| 2026-05-08 04:04 | 30.29997 | 103.83309 | 5305 ft | 180 kts | 32° |
| 2026-05-08 04:04 | 30.31098 | 103.83968 | 5201 ft | 181 kts | 26° |
| 2026-05-08 04:04 | 30.32267 | 103.84546 | 5133 ft | 180 kts | 24° |
| 2026-05-08 04:05 | 30.33417 | 103.85080 | 5068 ft | 180 kts | 23° |
| 2026-05-08 04:05 | 30.34586 | 103.85614 | 5004 ft | 181 kts | 24° |
| 2026-05-08 04:05 | 30.35764 | 103.86162 | 4953 ft | 177 kts | 23° |
| 2026-05-08 04:05 | 30.36926 | 103.86694 | 4872 ft | 182 kts | 24° |
| 2026-05-08 04:06 | 30.38082 | 103.87257 | 4639 ft | 181 kts | 24° |
| 2026-05-08 04:06 | 30.39244 | 103.87792 | 4353 ft | 184 kts | 22° |
| 2026-05-08 04:06 | 30.40426 | 103.88334 | 4109 ft | 181 kts | 24° |
| 2026-05-08 04:06 | 30.41583 | 103.88867 | 3863 ft | 179 kts | 24° |
| 2026-05-08 04:07 | 30.42744 | 103.89399 | 3639 ft | 180 kts | 23° |
| 2026-05-08 04:07 | 30.43892 | 103.89932 | 3385 ft | 173 kts | 24° |
| 2026-05-08 04:07 | 30.44990 | 103.90446 | 3176 ft | 167 kts | 24° |
| 2026-05-08 04:07 | 30.46041 | 103.90928 | 2938 ft | 157 kts | 24° |
| 2026-05-08 04:08 | 30.47016 | 103.91386 | 2756 ft | 146 kts | 24° |
| 2026-05-08 04:08 | 30.47925 | 103.91812 | 2582 ft | 137 kts | 22° |
| 2026-05-08 04:08 | 30.48784 | 103.92207 | 2399 ft | 131 kts | 22° |
| 2026-05-08 04:08 | 30.49622 | 103.92593 | 2206 ft | 129 kts | 21° |
| 2026-05-08 04:09 | 30.50464 | 103.92976 | 2031 ft | 131 kts | 21° |
| 2026-05-08 04:09 | 30.51317 | 103.93369 | 1850 ft | 132 kts | 21° |
| 2026-05-08 04:09 | 30.52166 | 103.93766 | 1683 ft | 131 kts | 21° |
| 2026-05-08 04:09 | 30.52946 | 103.94130 | 1652 ft | 107 kts | 23° |
| 2026-05-08 04:10 | 30.53508 | 103.94396 | 1652 ft | 67 kts | 22° |
| 2026-05-08 04:10 | 30.53851 | 103.94559 | 1652 ft | 47 kts | 22° |
| 2026-05-08 04:10 | 30.54054 | 103.94632 | 1652 ft | 26 kts | 5° |
| 2026-05-08 04:10 | 30.54228 | 103.94617 | 1652 ft | 25 kts | 353° |
| 2026-05-08 04:11 | 30.54403 | 103.94602 | 1652 ft | 26 kts | 6° |
| 2026-05-08 04:11 | 30.54571 | 103.94666 | 1652 ft | 26 kts | 22° |
| 2026-05-08 04:11 | 30.54742 | 103.94747 | 1652 ft | 27 kts | 22° |
| 2026-05-08 04:11 | 30.54914 | 103.94828 | 1652 ft | 27 kts | 22° |
| 2026-05-08 04:12 | 30.55093 | 103.94913 | 1652 ft | 27 kts | 22° |
| 2026-05-08 04:12 | 30.55259 | 103.94979 | 1652 ft | 20 kts | 354° |
| 2026-05-08 04:12 | 30.55396 | 103.94947 | 1653 ft | 19 kts | 5° |
| 2026-05-08 04:12 | 30.55523 | 103.94998 | 1653 ft | 20 kts | 22° |
| 2026-05-08 04:13 | 30.55659 | 103.95063 | 1653 ft | 22 kts | 22° |
| 2026-05-08 04:13 | 30.55809 | 103.95133 | 1652 ft | 24 kts | 20° |
| 2026-05-08 04:13 | 30.55972 | 103.95200 | 1652 ft | 26 kts | 19° |
| 2026-05-08 04:13 | 30.56142 | 103.95276 | 1652 ft | 27 kts | 20° |
| 2026-05-08 04:14 | 30.56319 | 103.95355 | 1652 ft | 28 kts | 21° |
| 2026-05-08 04:14 | 30.56503 | 103.95441 | 1652 ft | 28 kts | 22° |
| 2026-05-08 04:14 | 30.56591 | 103.95469 | 1652 ft | 8 kts | 345° |
| 2026-05-08 04:14 | 30.56627 | 103.95416 | 1652 ft | 10 kts | 294° |
| 2026-05-08 04:15 | 30.56663 | 103.95316 | 1652 ft | 16 kts | 292° |
| 2026-05-08 04:15 | 30.56713 | 103.95173 | 1652 ft | 22 kts | 292° |
| 2026-05-08 04:15 | 30.56775 | 103.94995 | 1652 ft | 25 kts | 292° |
| 2026-05-08 04:15 | 30.56832 | 103.94830 | 1652 ft | 22 kts | 292° |
| 2026-05-08 04:16 | 30.56889 | 103.94693 | 1652 ft | 13 kts | 320° |
| 2026-05-08 04:16 | 30.56970 | 103.94695 | 1652 ft | 13 kts | 13° |
| 2026-05-08 04:16 | 30.57042 | 103.94725 | 1652 ft | 5 kts | 34° |
| 2026-05-08 04:16 | 30.57053 | 103.94762 | 1652 ft | 4 kts | 95° |
| 2026-05-08 04:17 | 30.57041 | 103.94803 | 1652 ft | 7 kts | 111° |
| 2026-05-08 04:17 | 30.57031 | 103.94831 | 1652 ft | 1 kts | 111° |
| 2026-05-08 04:17 | 30.57029 | 103.94839 | 1652 ft | 2 kts | 111° |
| 2026-05-08 04:17 | 30.57024 | 103.94853 | 1652 ft | 1 kts | 112° |
| 2026-05-08 04:18 | 30.57021 | 103.94860 | 1652 ft | 0 kts | 112° |